createdAt,value
2023-03-22T00:00:53.465Z,68.06
2023-03-22T00:03:20.226Z,67.86
2023-03-22T00:05:46.638Z,68.37
2023-03-22T00:08:13.748Z,68.46
2023-03-22T00:10:42.087Z,67.88
2023-03-22T00:13:10.242Z,68.61
2023-03-22T00:15:37.357Z,68.59
2023-03-22T00:18:06.088Z,68.69
2023-03-22T00:20:37.443Z,68.95
2023-03-22T00:23:04.180Z,68.73
2023-03-22T00:25:30.980Z,68.82
2023-03-22T00:27:57.421Z,68.69
2023-03-22T00:30:23.830Z,68.52
2023-03-22T00:32:50.248Z,68.75
2023-03-22T00:35:16.742Z,68.54
2023-03-22T00:37:43.114Z,68.52
2023-03-22T00:40:12.737Z,68.92
2023-03-22T00:42:40.719Z,69.18
2023-03-22T00:45:09.884Z,69.25
2023-03-22T00:47:36.629Z,69.09
2023-03-22T00:50:04.131Z,68.89
2023-03-22T00:52:30.722Z,69.00
2023-03-22T00:54:57.128Z,69.64
2023-03-22T00:57:23.656Z,69.65
2023-03-22T00:59:50.392Z,69.71
2023-03-22T01:02:17.381Z,69.82
2023-03-22T01:04:48.016Z,69.55
2023-03-22T01:07:21.686Z,69.44
2023-03-22T01:09:48.658Z,69.85
2023-03-22T01:12:16.496Z,69.87
2023-03-22T01:14:43.609Z,70.09
2023-03-22T01:17:10.810Z,69.78
2023-03-22T01:19:38.109Z,69.58
2023-03-22T01:22:05.907Z,69.38
2023-03-22T01:24:32.621Z,69.62
2023-03-22T01:26:59.772Z,69.56
2023-03-22T01:29:26.691Z,69.52
2023-03-22T01:31:53.247Z,69.93
2023-03-22T01:34:19.814Z,69.63
2023-03-22T01:36:46.222Z,69.67
2023-03-22T01:39:12.643Z,69.83
2023-03-22T01:41:39.084Z,69.81
2023-03-22T01:44:10.287Z,70.14
2023-03-22T01:46:37.013Z,70.37
2023-03-22T01:49:06.709Z,70.54
2023-03-22T01:51:33.717Z,70.76
2023-03-22T01:54:04.055Z,70.88
2023-03-22T01:56:34.773Z,71.20
2023-03-22T01:59:02.034Z,70.93
2023-03-22T02:01:29.272Z,71.16
2023-03-22T02:04:03.361Z,71.11
2023-03-22T02:06:32.293Z,71.21
2023-03-22T02:08:58.732Z,71.33
2023-03-22T02:11:33.446Z,71.55
2023-03-22T02:14:15.200Z,71.23
2023-03-22T02:17:06.785Z,71.51
2023-03-22T02:19:53.981Z,71.59
2023-03-22T02:22:23.251Z,71.74
2023-03-22T02:25:12.716Z,71.40
2023-03-22T02:28:04.400Z,71.18
2023-03-22T02:30:51.235Z,71.18
2023-03-22T02:33:41.672Z,71.50
2023-03-22T02:36:30.907Z,71.76
2023-03-22T02:39:16.054Z,71.70
2023-03-22T02:42:00.727Z,71.80
2023-03-22T02:44:47.265Z,71.74
2023-03-22T02:47:25.353Z,71.77
2023-03-22T02:50:24.802Z,72.50
2023-03-22T02:52:57.321Z,71.90
2023-03-22T02:56:01.008Z,72.04
2023-03-22T02:58:33.575Z,71.98
2023-03-22T03:01:05.709Z,71.91
2023-03-22T03:03:33.631Z,72.01
2023-03-22T03:06:05.058Z,72.80
2023-03-22T03:08:32.201Z,72.94
2023-03-22T03:10:58.650Z,72.78
2023-03-22T03:13:25.254Z,72.37
2023-03-22T03:15:57.282Z,72.68
2023-03-22T03:18:52.407Z,73.15
2023-03-22T03:21:36.996Z,73.11
2023-03-22T03:24:22.859Z,72.24
2023-03-22T03:27:00.868Z,72.51
2023-03-22T03:29:50.666Z,73.13
2023-03-22T03:32:19.640Z,72.70
2023-03-22T03:34:52.761Z,72.67
2023-03-22T03:37:23.867Z,72.79
2023-03-22T03:40:05.450Z,73.11
2023-03-22T03:42:32.977Z,73.53
2023-03-22T03:44:59.725Z,73.10
2023-03-22T03:47:29.092Z,72.88
2023-03-22T03:49:55.884Z,73.24
2023-03-22T03:52:24.487Z,72.31
2023-03-22T03:54:51.203Z,72.76
2023-03-22T03:57:17.621Z,72.86
2023-03-22T03:59:44.085Z,72.58
2023-03-22T04:02:10.773Z,72.22
2023-03-22T04:04:37.276Z,72.76
2023-03-22T04:07:05.804Z,72.96
2023-03-22T04:09:35.251Z,72.84
2023-03-22T04:12:01.713Z,72.89
2023-03-22T04:14:28.536Z,73.48
2023-03-22T04:16:55.539Z,72.23
2023-03-22T04:19:22.643Z,72.96
2023-03-22T04:21:49.065Z,72.06
2023-03-22T04:24:15.609Z,72.25
2023-03-22T04:26:42.106Z,73.25
2023-03-22T04:29:08.554Z,72.59
2023-03-22T04:31:36.789Z,72.20
2023-03-22T04:34:05.362Z,72.51
2023-03-22T04:36:39.185Z,72.19
2023-03-22T04:39:08.150Z,72.28
2023-03-22T04:41:38.016Z,72.47
2023-03-22T04:44:05.482Z,72.66
2023-03-22T04:46:34.494Z,72.78
2023-03-22T04:49:01.286Z,72.22
2023-03-22T04:51:28.190Z,72.57
2023-03-22T04:53:55.158Z,72.03
2023-03-22T04:56:22.043Z,73.31
2023-03-22T04:58:48.450Z,72.35
2023-03-22T05:01:18.184Z,72.49
2023-03-22T05:03:48.264Z,72.60
2023-03-22T05:06:15.544Z,72.78
2023-03-22T05:08:42.147Z,72.39
2023-03-22T05:11:12.045Z,73.32
2023-03-22T05:13:38.773Z,73.04
2023-03-22T05:16:06.064Z,73.02
2023-03-22T05:18:33.082Z,73.35
2023-03-22T05:21:03.889Z,73.43
2023-03-22T05:23:30.426Z,73.44
2023-03-22T05:25:58.202Z,73.21
2023-03-22T05:28:27.112Z,73.60
2023-03-22T05:30:56.572Z,73.24
2023-03-22T05:33:23.460Z,73.12
2023-03-22T05:35:51.040Z,73.37
2023-03-22T05:38:17.762Z,73.09
2023-03-22T05:40:45.053Z,74.04
2023-03-22T05:43:11.757Z,73.29
2023-03-22T05:45:38.238Z,73.68
2023-03-22T05:48:05.310Z,73.44
2023-03-22T05:50:32.273Z,73.22
2023-03-22T05:52:58.912Z,73.19
2023-03-22T05:55:26.009Z,73.95
2023-03-22T05:57:54.002Z,74.03
2023-03-22T06:00:21.675Z,73.95
2023-03-22T06:02:49.658Z,74.03
2023-03-22T06:05:17.466Z,74.04
2023-03-22T06:07:44.627Z,72.88
2023-03-22T06:10:12.876Z,72.85
2023-03-22T06:12:39.380Z,72.99
2023-03-22T06:15:07.370Z,73.76
2023-03-22T06:17:34.368Z,72.60
2023-03-22T06:20:00.773Z,72.97
2023-03-22T06:22:30.335Z,72.45
2023-03-22T06:24:56.739Z,73.25
2023-03-22T06:27:23.183Z,72.66
2023-03-22T06:29:50.858Z,73.37
2023-03-22T06:32:17.842Z,73.23
2023-03-22T06:34:44.309Z,72.53
2023-03-22T06:37:10.772Z,72.69
2023-03-22T06:39:37.155Z,72.18
2023-03-22T06:42:03.760Z,72.49
2023-03-22T06:44:30.137Z,71.35
2023-03-22T06:46:56.517Z,71.06
2023-03-22T06:49:22.979Z,71.43
2023-03-22T06:51:49.394Z,71.06
2023-03-22T06:54:16.736Z,71.73
2023-03-22T06:56:43.779Z,71.74
2023-03-22T06:59:10.421Z,71.23
2023-03-22T07:01:36.830Z,70.69
2023-03-22T07:04:03.367Z,70.34
2023-03-22T07:06:30.805Z,69.92
2023-03-22T07:08:57.247Z,70.82
2023-03-22T07:11:25.787Z,70.52
2023-03-22T07:13:55.153Z,70.56
2023-03-22T07:16:22.421Z,70.02
2023-03-22T07:18:49.247Z,71.31
2023-03-22T07:21:16.149Z,70.41
2023-03-22T07:23:43.036Z,69.54
2023-03-22T07:26:09.536Z,70.61
2023-03-22T07:28:36.112Z,71.10
2023-03-22T07:31:05.491Z,70.37
2023-03-22T07:33:32.118Z,70.78
2023-03-22T07:35:58.796Z,69.41
2023-03-22T07:38:25.417Z,69.08
2023-03-22T07:40:59.029Z,69.12
2023-03-22T07:43:25.849Z,69.84
2023-03-22T07:45:52.740Z,69.29
2023-03-22T07:48:22.406Z,68.60
2023-03-22T07:50:49.225Z,69.56
2023-03-22T07:53:15.616Z,69.27
2023-03-22T07:55:45.115Z,69.83
2023-03-22T07:58:11.650Z,69.10
2023-03-22T08:00:38.525Z,69.03
2023-03-22T08:03:05.850Z,68.46
2023-03-22T08:05:32.396Z,69.19
2023-03-22T08:07:58.830Z,68.11
2023-03-22T08:10:25.206Z,68.37
2023-03-22T08:12:52.807Z,68.00
2023-03-22T08:15:22.065Z,67.92
2023-03-22T08:17:49.886Z,67.68
2023-03-22T08:20:19.744Z,67.85
2023-03-22T08:22:46.330Z,67.03
2023-03-22T08:25:22.710Z,67.67
2023-03-22T08:27:49.252Z,67.01
2023-03-22T08:30:16.107Z,66.27
2023-03-22T08:32:42.850Z,66.33
2023-03-22T08:35:12.188Z,65.82
2023-03-22T08:37:40.040Z,66.08
2023-03-22T08:40:09.526Z,65.68
2023-03-22T08:42:36.525Z,65.61
2023-03-22T08:45:03.925Z,65.07
2023-03-22T08:47:31.492Z,65.24
2023-03-22T08:50:04.231Z,64.72
2023-03-22T08:52:51.498Z,63.29
2023-03-22T08:55:18.090Z,63.36
2023-03-22T08:57:50.322Z,62.67
2023-03-22T09:00:18.728Z,63.42
2023-03-22T09:02:49.201Z,62.67
2023-03-22T09:05:15.728Z,63.02
2023-03-22T09:07:44.379Z,63.34
2023-03-22T09:10:12.557Z,62.15
2023-03-22T09:12:39.130Z,62.60
2023-03-22T09:15:08.683Z,61.78
2023-03-22T09:17:36.203Z,61.39
2023-03-22T09:20:12.565Z,61.54
2023-03-22T09:22:41.798Z,61.73
2023-03-22T09:25:10.401Z,61.00
2023-03-22T09:27:38.564Z,60.54
2023-03-22T09:30:05.614Z,59.05
2023-03-22T09:32:32.160Z,58.76
2023-03-22T09:35:01.369Z,58.82
2023-03-22T09:37:30.207Z,59.21
2023-03-22T09:39:57.717Z,57.94
2023-03-22T09:42:31.479Z,58.59
2023-03-22T09:45:02.622Z,58.70
2023-03-22T09:47:45.804Z,57.46
2023-03-22T09:50:20.161Z,57.25
2023-03-22T09:52:46.745Z,57.13
2023-03-22T09:55:29.990Z,57.55
2023-03-22T09:58:21.205Z,56.49
2023-03-22T10:00:57.575Z,56.75
2023-03-22T10:03:53.863Z,57.46
2023-03-22T10:06:27.312Z,57.54
2023-03-22T10:09:16.357Z,57.49
2023-03-22T10:12:05.036Z,57.11
2023-03-22T10:14:57.677Z,57.42
2023-03-22T10:17:26.473Z,58.12
2023-03-22T10:20:02.000Z,57.17
2023-03-22T10:22:34.135Z,57.59
2023-03-22T10:25:02.524Z,57.54
2023-03-22T10:27:31.530Z,57.55
2023-03-22T10:30:08.745Z,56.97
2023-03-22T10:32:56.681Z,57.08
2023-03-22T10:35:24.049Z,55.44
2023-03-22T10:37:52.621Z,56.30
2023-03-22T10:40:24.711Z,55.18
2023-03-22T10:42:57.876Z,54.47
2023-03-22T10:45:26.242Z,54.42
2023-03-22T10:48:41.776Z,53.79
2023-03-22T10:51:20.594Z,55.43
2023-03-22T10:53:51.616Z,55.18
2023-03-22T10:56:20.114Z,55.27
2023-03-22T10:58:48.608Z,54.69
2023-03-22T11:01:25.434Z,56.46
2023-03-22T11:04:02.282Z,55.21
2023-03-22T11:06:35.010Z,55.80
2023-03-22T11:09:13.691Z,55.13
2023-03-22T11:11:56.212Z,55.35
2023-03-22T11:14:36.846Z,55.93
2023-03-22T11:17:06.306Z,54.79
2023-03-22T11:19:35.629Z,54.83
2023-03-22T11:22:06.840Z,55.24
2023-03-22T11:24:34.437Z,54.76
2023-03-22T11:27:24.184Z,54.92
2023-03-22T11:29:58.261Z,55.79
2023-03-22T11:32:30.676Z,54.92
2023-03-22T11:35:16.077Z,54.89
2023-03-22T11:37:44.416Z,54.81
2023-03-22T11:40:33.323Z,55.71
2023-03-22T11:43:27.213Z,54.69
2023-03-22T11:45:57.524Z,54.54
2023-03-22T11:48:27.402Z,55.31
2023-03-22T11:50:58.631Z,54.73
2023-03-22T11:53:27.438Z,54.68
2023-03-22T11:55:57.262Z,54.55
2023-03-22T11:58:28.783Z,55.17
2023-03-22T12:00:59.413Z,54.42
2023-03-22T12:03:30.949Z,55.53
2023-03-22T12:06:01.605Z,54.93
2023-03-22T12:08:46.201Z,55.82
2023-03-22T12:11:36.003Z,55.58
2023-03-22T12:14:16.678Z,55.65
2023-03-22T12:16:50.542Z,55.39
2023-03-22T12:19:31.038Z,55.78
2023-03-22T12:21:59.282Z,55.44
2023-03-22T12:24:31.012Z,55.42
2023-03-22T12:27:04.227Z,56.29
2023-03-22T12:29:32.050Z,55.47
2023-03-22T12:32:03.509Z,55.32
2023-03-22T12:34:43.847Z,55.57
2023-03-22T12:37:18.282Z,55.64
2023-03-22T12:39:56.291Z,56.39
2023-03-22T12:42:34.748Z,55.44
2023-03-22T12:45:29.330Z,55.93
2023-03-22T12:48:04.860Z,55.79
2023-03-22T12:50:42.189Z,55.70
2023-03-22T12:53:15.176Z,56.84
2023-03-22T12:55:43.540Z,56.17
2023-03-22T12:58:12.895Z,55.89
2023-03-22T13:00:48.532Z,55.66
2023-03-22T13:03:18.218Z,55.59
2023-03-22T13:05:46.679Z,55.84
2023-03-22T13:08:19.104Z,55.75
2023-03-22T13:10:59.459Z,55.92
2023-03-22T13:13:26.459Z,56.28
2023-03-22T13:15:55.798Z,56.24
2023-03-22T13:18:39.989Z,55.42
2023-03-22T13:21:11.366Z,55.82
2023-03-22T13:23:55.662Z,55.79
2023-03-22T13:26:31.034Z,55.33
2023-03-22T13:28:59.034Z,55.58
2023-03-22T13:31:42.713Z,55.47
2023-03-22T13:34:48.416Z,55.77
2023-03-22T13:37:37.549Z,55.72
2023-03-22T13:40:27.444Z,55.60
2023-03-22T13:42:53.954Z,55.42
2023-03-22T13:45:33.418Z,55.18
2023-03-22T13:48:12.483Z,56.21
2023-03-22T13:50:39.985Z,55.49
2023-03-22T13:53:21.550Z,56.06
2023-03-22T13:55:51.799Z,55.60
2023-03-22T13:58:33.061Z,55.84
2023-03-22T14:01:00.308Z,56.01
2023-03-22T14:03:32.560Z,56.11
2023-03-22T14:06:18.820Z,55.55
2023-03-22T14:08:47.762Z,56.35
2023-03-22T14:11:26.486Z,55.76
2023-03-22T14:14:18.588Z,55.62
2023-03-22T14:17:05.634Z,55.60
2023-03-22T14:19:37.274Z,55.41
